Time;durP1;ratioP1;P1;durP2;ratioP2;P2;SDS_P1;SDS_P2;PMS_P1;PMS_P2;Temp;Humidity;BMP_temperature;BMP_pressure;BME280_temperature;BME280_humidity;BME280_pressure;Samples;Min_cycle;Max_cycle;Signal;HPM_P1;HPM_P2
2022/10/24 00:01:24;;;;;;;;;;;16.70;99.90;;;;;;5051740;28;20015;-68
2022/10/24 00:03:51;;;;;;;;;;;16.80;99.90;;;;;;5048758;28;20027;-69
2022/10/24 00:06:18;;;;;;;;;;;16.70;99.90;;;;;;5052726;28;20027;-68
2022/10/24 00:08:46;;;;;;;;;;;16.80;99.90;;;;;;5051641;28;19955;-69
2022/10/24 00:11:14;;;;;;;;;;;16.70;99.90;;;;;;5051303;28;19931;-69
2022/10/24 00:13:41;;;;;;;;;;;16.80;99.90;;;;;;5052070;28;20298;-69
2022/10/24 00:16:08;;;;;;;;;;;16.70;99.90;;;;;;5051529;28;20295;-69
2022/10/24 00:18:35;;;;;;;;;;;16.70;99.90;;;;;;5053447;28;20394;-69
2022/10/24 00:21:01;;;;;;;;;;;16.70;99.90;;;;;;5052365;28;20023;-69
2022/10/24 00:23:28;;;;;;;;;;;16.70;99.90;;;;;;5052759;28;19925;-69
2022/10/24 00:26:00;;;;;;;;;;;16.70;99.90;;;;;;5052594;28;19924;-69
2022/10/24 00:28:27;;;;;;;;;;;16.70;99.90;;;;;;5053365;28;19931;-69
2022/10/24 00:30:53;;;;;;;;;;;16.70;99.90;;;;;;5051190;28;20315;-69
2022/10/24 00:33:20;;;;;;;;;;;16.70;99.90;;;;;;5051806;28;19924;-69
2022/10/24 00:35:47;;;;;;;;;;;16.90;99.90;;;;;;5053798;28;20302;-69
2022/10/24 00:38:13;;;;;;;;;;;16.90;99.90;;;;;;5063909;28;20383;-69
2022/10/24 00:40:40;;;;;;;;;;;17.00;99.90;;;;;;5045062;28;19931;-68
2022/10/24 00:43:13;;;;;;;;;;;16.90;99.90;;;;;;5052836;28;19931;-68
2022/10/24 00:45:41;;;;;;;;;;;16.90;99.90;;;;;;5051932;28;19925;-68
2022/10/24 00:48:12;;;;;;;;;;;16.90;99.90;;;;;;5050247;28;19925;-68
2022/10/24 00:50:39;;;;;;;;;;;16.80;99.90;;;;;;5048523;28;20509;-68
2022/10/24 00:53:07;;;;;;;;;;;16.80;99.90;;;;;;5048994;28;20391;-69
2022/10/24 00:55:33;;;;;;;;;;;16.70;99.90;;;;;;5048252;28;20411;-69
2022/10/24 00:58:01;;;;;;;;;;;16.70;99.90;;;;;;5051071;28;20406;-69
2022/10/24 01:00:31;;;;;;;;;;;16.70;99.90;;;;;;5051784;28;20337;-69
2022/10/24 01:02:58;;;;;;;;;;;16.70;99.90;;;;;;5050970;28;19931;-69
2022/10/24 01:05:26;;;;;;;;;;;16.70;99.90;;;;;;5052188;28;19925;-68
2022/10/24 01:08:02;;;;;;;;;;;16.80;99.90;;;;;;5052145;28;19947;-68
2022/10/24 01:10:33;;;;;;;;;;;16.80;99.90;;;;;;5050776;28;20011;-68
2022/10/24 01:13:08;;;;;;;;;;;16.80;99.90;;;;;;5051918;28;20372;-67
2022/10/24 01:15:38;;;;;;;;;;;16.80;99.90;;;;;;5051016;28;19932;-68
2022/10/24 01:18:08;;;;;;;;;;;16.70;99.90;;;;;;5051853;28;19929;-67
2022/10/24 01:20:50;;;;;;;;;;;16.60;99.90;;;;;;5051201;28;20283;-68
2022/10/24 01:23:33;;;;;;;;;;;16.60;99.90;;;;;;5052166;28;19971;-68
2022/10/24 01:26:07;;;;;;;;;;;16.60;99.90;;;;;;5050752;28;19937;-68
2022/10/24 01:28:40;;;;;;;;;;;16.50;99.90;;;;;;5050698;28;20310;-68
2022/10/24 01:31:10;;;;;;;;;;;16.60;99.90;;;;;;5050559;28;19931;-67
2022/10/24 01:33:38;;;;;;;;;;;16.60;99.90;;;;;;5050688;28;20401;-67
2022/10/24 01:36:07;;;;;;;;;;;16.60;99.90;;;;;;5050725;28;19975;-67
2022/10/24 01:38:36;;;;;;;;;;;16.60;99.90;;;;;;5050920;28;19925;-67
2022/10/24 01:41:05;;;;;;;;;;;16.70;99.90;;;;;;5051429;28;19979;-67
2022/10/24 01:43:32;;;;;;;;;;;16.60;99.90;;;;;;5051787;28;19924;-66
2022/10/24 01:46:02;;;;;;;;;;;16.60;99.90;;;;;;5051907;28;20491;-66
2022/10/24 01:48:31;;;;;;;;;;;16.60;99.90;;;;;;5050544;28;19928;-66
2022/10/24 01:50:59;;;;;;;;;;;16.60;99.90;;;;;;5048102;28;19933;-66
2022/10/24 01:53:28;;;;;;;;;;;16.60;99.90;;;;;;5050794;28;19932;-66
2022/10/24 01:55:54;;;;;;;;;;;16.70;99.90;;;;;;5051635;28;19983;-66
2022/10/24 01:58:21;;;;;;;;;;;16.70;99.90;;;;;;5051536;28;19924;-66
2022/10/24 02:00:48;;;;;;;;;;;16.70;99.90;;;;;;5050271;28;19933;-66
2022/10/24 02:03:19;;;;;;;;;;;16.60;99.90;;;;;;5051588;28;20351;-66
2022/10/24 02:05:49;;;;;;;;;;;16.60;99.90;;;;;;5050408;28;19931;-66
2022/10/24 02:08:18;;;;;;;;;;;16.60;99.90;;;;;;5051074;28;19925;-66
2022/10/24 02:10:47;;;;;;;;;;;16.60;99.90;;;;;;5050053;28;19968;-67
2022/10/24 02:13:16;;;;;;;;;;;16.50;99.90;;;;;;5050245;28;19994;-66
2022/10/24 02:15:44;;;;;;;;;;;16.50;99.90;;;;;;5051150;28;19925;-66
2022/10/24 02:18:11;;;;;;;;;;;16.50;99.90;;;;;;5049494;28;20007;-66
2022/10/24 02:20:42;;;;;;;;;;;16.50;99.90;;;;;;5050677;28;19924;-66
2022/10/24 02:23:13;;;;;;;;;;;16.60;99.90;;;;;;5051526;28;19931;-66
2022/10/24 02:25:42;;;;;;;;;;;16.50;99.90;;;;;;5051015;28;20347;-66
2022/10/24 02:28:10;;;;;;;;;;;16.50;99.90;;;;;;5054464;28;19931;-66
2022/10/24 02:30:39;;;;;;;;;;;16.50;99.90;;;;;;5055080;28;20023;-66
2022/10/24 02:33:05;;;;;;;;;;;16.40;99.90;;;;;;5053455;28;19935;-66
2022/10/24 02:35:34;;;;;;;;;;;16.30;99.90;;;;;;5054748;28;19931;-66
2022/10/24 02:38:02;;;;;;;;;;;16.30;99.90;;;;;;5054800;28;20336;-66
2022/10/24 02:40:31;;;;;;;;;;;16.20;99.90;;;;;;5055217;28;20370;-66
2022/10/24 02:42:59;;;;;;;;;;;16.20;99.90;;;;;;5054359;28;19932;-66
2022/10/24 02:45:25;;;;;;;;;;;16.20;99.90;;;;;;5053136;28;19943;-67
2022/10/24 02:47:54;;;;;;;;;;;16.30;99.90;;;;;;5057239;28;19925;-66
2022/10/24 02:50:21;;;;;;;;;;;16.30;99.90;;;;;;5052071;28;19939;-66
2022/10/24 02:52:48;;;;;;;;;;;16.30;99.90;;;;;;5053221;28;19931;-67
2022/10/24 02:55:15;;;;;;;;;;;16.30;99.90;;;;;;5065130;28;19931;-67
2022/10/24 02:57:43;;;;;;;;;;;16.30;99.90;;;;;;5057782;28;19925;-66
2022/10/24 03:00:10;;;;;;;;;;;16.30;99.90;;;;;;5067858;28;19967;-67
2022/10/24 03:02:37;;;;;;;;;;;16.30;99.90;;;;;;5053060;28;20392;-67
2022/10/24 03:05:04;;;;;;;;;;;16.20;99.90;;;;;;5054251;28;19924;-67
2022/10/24 03:07:30;;;;;;;;;;;16.20;99.90;;;;;;5054510;28;19931;-67
2022/10/24 03:09:57;;;;;;;;;;;16.20;99.90;;;;;;5052423;28;20019;-67
2022/10/24 03:12:25;;;;;;;;;;;16.20;99.90;;;;;;5053884;28;20019;-67
2022/10/24 03:14:53;;;;;;;;;;;16.20;99.90;;;;;;5050691;28;19925;-67
2022/10/24 03:17:20;;;;;;;;;;;16.10;99.90;;;;;;5053797;28;19931;-66
2022/10/24 03:19:47;;;;;;;;;;;16.20;99.90;;;;;;5052794;28;19987;-67
2022/10/24 03:22:14;;;;;;;;;;;16.20;99.90;;;;;;5052871;28;19924;-67
2022/10/24 03:24:40;;;;;;;;;;;16.20;99.90;;;;;;5053633;28;20114;-67
2022/10/24 03:27:07;;;;;;;;;;;16.30;99.90;;;;;;5053224;28;19924;-66
2022/10/24 03:29:33;;;;;;;;;;;16.30;99.90;;;;;;5052665;28;19936;-67
2022/10/24 03:32:01;;;;;;;;;;;16.20;99.90;;;;;;5052318;28;19925;-67
2022/10/24 03:34:28;;;;;;;;;;;16.10;99.90;;;;;;5053371;28;19925;-67
2022/10/24 03:36:55;;;;;;;;;;;16.10;99.90;;;;;;5052751;28;20015;-67
2022/10/24 03:39:21;;;;;;;;;;;16.10;99.90;;;;;;5048275;28;20334;-67
2022/10/24 03:41:48;;;;;;;;;;;16.10;99.90;;;;;;5042127;28;20260;-67
2022/10/24 03:44:15;;;;;;;;;;;16.00;99.90;;;;;;5053521;28;19931;-67
2022/10/24 03:46:41;;;;;;;;;;;16.10;99.90;;;;;;5053401;28;20019;-67
2022/10/24 03:49:09;;;;;;;;;;;16.00;99.90;;;;;;5052598;28;20049;-66
2022/10/24 03:51:36;;;;;;;;;;;16.00;99.90;;;;;;5049427;28;20318;-66
2022/10/24 03:54:03;;;;;;;;;;;16.10;99.90;;;;;;5051326;28;19925;-67
2022/10/24 03:56:29;;;;;;;;;;;16.20;99.90;;;;;;5050971;28;19932;-67
2022/10/24 03:58:56;;;;;;;;;;;16.20;99.90;;;;;;5052507;28;19924;-67
2022/10/24 04:01:23;;;;;;;;;;;16.20;99.90;;;;;;5052745;28;20341;-67
2022/10/24 04:03:50;;;;;;;;;;;16.30;99.90;;;;;;5052588;28;19931;-67
2022/10/24 04:06:18;;;;;;;;;;;16.40;99.90;;;;;;5052870;28;20399;-66
2022/10/24 04:08:44;;;;;;;;;;;16.40;99.90;;;;;;5046784;28;20022;-67
2022/10/24 04:11:11;;;;;;;;;;;16.50;99.90;;;;;;5051778;28;19925;-66
2022/10/24 04:13:39;;;;;;;;;;;16.60;99.90;;;;;;5049132;28;20307;-66
2022/10/24 04:16:06;;;;;;;;;;;16.60;99.90;;;;;;5050084;28;19925;-65
2022/10/24 04:18:33;;;;;;;;;;;16.50;99.90;;;;;;5052102;28;20007;-66
2022/10/24 04:21:00;;;;;;;;;;;16.40;99.90;;;;;;5052830;28;20287;-67
2022/10/24 04:23:29;;;;;;;;;;;16.30;99.90;;;;;;5052993;28;20023;-66
2022/10/24 04:25:56;;;;;;;;;;;16.20;99.90;;;;;;5052268;28;19931;-66
2022/10/24 04:28:23;;;;;;;;;;;16.30;99.90;;;;;;5052469;28;19957;-66
2022/10/24 04:30:53;;;;;;;;;;;16.20;99.90;;;;;;5051914;28;20391;-66
2022/10/24 04:33:20;;;;;;;;;;;16.30;99.90;;;;;;5051644;28;20395;-67
2022/10/24 04:35:47;;;;;;;;;;;16.20;99.90;;;;;;5052569;28;20019;-66
2022/10/24 04:38:14;;;;;;;;;;;16.20;99.90;;;;;;5052032;28;20015;-67
2022/10/24 04:40:44;;;;;;;;;;;16.20;99.90;;;;;;5050583;28;20372;-67
2022/10/24 04:43:11;;;;;;;;;;;16.30;99.90;;;;;;5049466;28;20384;-66
2022/10/24 04:45:38;;;;;;;;;;;16.20;99.90;;;;;;5049269;28;19962;-67
2022/10/24 04:48:05;;;;;;;;;;;16.30;99.90;;;;;;5059543;28;19960;-67
2022/10/24 04:50:31;;;;;;;;;;;16.30;99.90;;;;;;5051872;28;19925;-66
2022/10/24 04:52:58;;;;;;;;;;;16.30;99.90;;;;;;5051873;28;19975;-66
2022/10/24 04:55:25;;;;;;;;;;;16.30;99.90;;;;;;5051945;28;19925;-66
2022/10/24 04:57:53;;;;;;;;;;;16.30;99.90;;;;;;5051410;28;19931;-67
2022/10/24 05:00:20;;;;;;;;;;;16.30;99.90;;;;;;5051743;28;20390;-66
2022/10/24 05:02:46;;;;;;;;;;;16.30;99.90;;;;;;5054758;28;20027;-65
2022/10/24 05:05:13;;;;;;;;;;;16.40;99.90;;;;;;5051743;28;19931;-67
2022/10/24 05:07:39;;;;;;;;;;;16.40;99.90;;;;;;5051786;28;19975;-66
2022/10/24 05:10:07;;;;;;;;;;;16.40;99.90;;;;;;5069831;28;20055;-66
2022/10/24 05:12:33;;;;;;;;;;;16.40;99.90;;;;;;5053540;28;20421;-68
2022/10/24 05:15:01;;;;;;;;;;;16.40;99.90;;;;;;5051573;28;20414;-68
2022/10/24 05:17:28;;;;;;;;;;;16.30;99.90;;;;;;5049149;28;19931;-67
2022/10/24 05:19:55;;;;;;;;;;;16.30;99.90;;;;;;5051984;28;19944;-68
2022/10/24 05:22:23;;;;;;;;;;;16.10;99.90;;;;;;5050310;28;19925;-68
2022/10/24 05:24:50;;;;;;;;;;;15.90;99.90;;;;;;5050118;28;20362;-69
2022/10/24 05:27:20;;;;;;;;;;;15.70;99.90;;;;;;5049243;28;19929;-69
2022/10/24 05:29:47;;;;;;;;;;;15.60;99.90;;;;;;5050666;28;19933;-69
2022/10/24 05:32:15;;;;;;;;;;;15.60;99.90;;;;;;5049198;28;19990;-68
2022/10/24 05:34:42;;;;;;;;;;;15.70;99.90;;;;;;5047281;28;19940;-69
2022/10/24 05:37:08;;;;;;;;;;;15.70;99.90;;;;;;5043572;28;19924;-68
2022/10/24 05:39:35;;;;;;;;;;;15.70;99.90;;;;;;5046665;28;19924;-69
2022/10/24 05:42:02;;;;;;;;;;;15.60;99.90;;;;;;5042835;28;20023;-69
2022/10/24 05:44:29;;;;;;;;;;;15.50;99.90;;;;;;5044991;28;19924;-68
2022/10/24 05:46:56;;;;;;;;;;;15.50;99.90;;;;;;5050429;28;19925;-68
2022/10/24 05:49:24;;;;;;;;;;;15.50;99.90;;;;;;5048224;28;19943;-69
2022/10/24 05:51:51;;;;;;;;;;;15.50;99.90;;;;;;5051622;28;19967;-68
2022/10/24 05:54:18;;;;;;;;;;;15.30;99.90;;;;;;5046824;28;19932;-68
2022/10/24 05:56:44;;;;;;;;;;;15.10;99.90;;;;;;5039001;28;19979;-68
2022/10/24 05:59:11;;;;;;;;;;;15.00;99.90;;;;;;5044763;28;20334;-69
2022/10/24 06:01:39;;;;;;;;;;;15.00;99.90;;;;;;5050642;28;20023;-68
2022/10/24 06:04:05;;;;;;;;;;;14.90;99.90;;;;;;5046913;28;19979;-68
2022/10/24 06:06:37;;;;;;;;;;;14.80;99.90;;;;;;5045810;28;19933;-68
2022/10/24 06:09:04;;;;;;;;;;;14.70;99.90;;;;;;5045357;28;19933;-68
2022/10/24 06:11:31;;;;;;;;;;;14.60;99.90;;;;;;5050176;28;19933;-66
2022/10/24 06:13:58;;;;;;;;;;;14.40;99.90;;;;;;5051310;28;19932;-68
2022/10/24 06:16:26;;;;;;;;;;;14.40;99.90;;;;;;5048456;28;19991;-68
2022/10/24 06:18:53;;;;;;;;;;;14.30;99.90;;;;;;5051320;28;19933;-69
2022/10/24 06:21:19;;;;;;;;;;;14.20;99.90;;;;;;5044906;28;19939;-68
2022/10/24 06:23:47;;;;;;;;;;;14.20;99.90;;;;;;5045279;28;20007;-69
2022/10/24 06:26:14;;;;;;;;;;;14.30;99.90;;;;;;5046597;28;21444;-66
2022/10/24 06:28:41;;;;;;;;;;;14.30;99.90;;;;;;5049985;28;20029;-67
2022/10/24 06:31:09;;;;;;;;;;;14.40;99.90;;;;;;5046312;28;19940;-68
2022/10/24 06:33:36;;;;;;;;;;;14.40;99.90;;;;;;5044526;28;19933;-68
2022/10/24 06:36:04;;;;;;;;;;;14.50;99.90;;;;;;5043222;28;20024;-68
2022/10/24 06:38:31;;;;;;;;;;;14.60;99.90;;;;;;5048496;28;20342;-68
2022/10/24 06:40:59;;;;;;;;;;;14.60;99.90;;;;;;5049200;28;20016;-67
2022/10/24 06:43:26;;;;;;;;;;;14.60;99.90;;;;;;5047851;28;20028;-67
2022/10/24 06:45:54;;;;;;;;;;;14.60;99.90;;;;;;5052950;28;19971;-67
2022/10/24 06:48:20;;;;;;;;;;;14.60;99.90;;;;;;5053327;28;19971;-67
2022/10/24 06:50:47;;;;;;;;;;;14.60;99.90;;;;;;5052640;28;20015;-67
2022/10/24 06:53:14;;;;;;;;;;;14.50;99.90;;;;;;5053430;28;19924;-68
2022/10/24 06:55:40;;;;;;;;;;;14.40;99.90;;;;;;5051988;28;20024;-67
2022/10/24 06:58:08;;;;;;;;;;;14.30;99.90;;;;;;5057072;28;19984;-67
2022/10/24 07:00:37;;;;;;;;;;;14.20;99.90;;;;;;5051698;28;20348;-67
2022/10/24 07:03:03;;;;;;;;;;;14.20;99.90;;;;;;5052498;28;19925;-68
2022/10/24 07:05:30;;;;;;;;;;;14.20;99.90;;;;;;5052479;28;19925;-67
2022/10/24 07:07:57;;;;;;;;;;;14.20;99.90;;;;;;5051977;28;19931;-67
2022/10/24 07:10:23;;;;;;;;;;;14.20;99.90;;;;;;5053232;28;19935;-67
2022/10/24 07:12:50;;;;;;;;;;;14.20;99.90;;;;;;5051708;28;19932;-67
2022/10/24 07:15:18;;;;;;;;;;;14.20;99.90;;;;;;5053132;28;19929;-67
2022/10/24 07:17:45;;;;;;;;;;;14.30;99.90;;;;;;5052252;28;19988;-67
2022/10/24 07:20:12;;;;;;;;;;;14.30;99.90;;;;;;5055728;28;19932;-67
2022/10/24 07:22:39;;;;;;;;;;;14.40;99.90;;;;;;5051557;28;19933;-67
2022/10/24 07:25:07;;;;;;;;;;;14.50;99.90;;;;;;5050651;28;20012;-67
2022/10/24 07:27:34;;;;;;;;;;;14.60;99.90;;;;;;5051495;28;20012;-67
2022/10/24 07:30:00;;;;;;;;;;;14.70;99.90;;;;;;5052433;28;19983;-67
2022/10/24 07:32:28;;;;;;;;;;;14.90;99.90;;;;;;5051427;28;19925;-67
2022/10/24 07:34:55;;;;;;;;;;;15.00;99.90;;;;;;5051557;28;19932;-67
2022/10/24 07:37:22;;;;;;;;;;;15.10;99.90;;;;;;5046527;28;19933;-67
2022/10/24 07:39:48;;;;;;;;;;;15.20;99.90;;;;;;5051659;28;19951;-68
2022/10/24 07:42:15;;;;;;;;;;;15.30;99.90;;;;;;5049381;28;19929;-67
2022/10/24 07:44:42;;;;;;;;;;;15.20;99.90;;;;;;5052110;28;20019;-67
2022/10/24 07:47:09;;;;;;;;;;;15.10;99.90;;;;;;5052007;28;20003;-67
2022/10/24 07:49:37;;;;;;;;;;;15.10;99.90;;;;;;5053077;28;19978;-67
2022/10/24 07:52:04;;;;;;;;;;;15.20;99.90;;;;;;5052578;28;20294;-67
2022/10/24 07:54:30;;;;;;;;;;;15.40;99.90;;;;;;5051300;28;20012;-67
2022/10/24 07:56:57;;;;;;;;;;;15.40;99.90;;;;;;5050306;28;20004;-67
2022/10/24 07:59:24;;;;;;;;;;;15.60;99.90;;;;;;5051396;28;19931;-67
2022/10/24 08:01:50;;;;;;;;;;;15.60;99.90;;;;;;5051336;28;19931;-67
2022/10/24 08:04:17;;;;;;;;;;;15.50;99.90;;;;;;5051965;28;20020;-67
2022/10/24 08:06:45;;;;;;;;;;;15.40;99.90;;;;;;5054446;28;19932;-67
2022/10/24 08:09:11;;;;;;;;;;;15.60;99.90;;;;;;5050098;28;19925;-67
2022/10/24 08:11:39;;;;;;;;;;;15.80;99.90;;;;;;5050760;28;19971;-68
2022/10/24 08:14:05;;;;;;;;;;;16.40;99.90;;;;;;5049676;28;19933;-68
2022/10/24 08:16:32;;;;;;;;;;;16.80;99.90;;;;;;5046321;28;20480;-68
2022/10/24 08:18:58;;;;;;;;;;;17.10;99.90;;;;;;5061145;28;19930;-67
2022/10/24 08:21:25;;;;;;;;;;;17.70;99.90;;;;;;5051126;28;19947;-67
2022/10/24 08:23:54;;;;;;;;;;;18.00;99.90;;;;;;5050024;28;20408;-68
2022/10/24 08:26:21;;;;;;;;;;;17.70;99.90;;;;;;5045086;28;19939;-68
2022/10/24 08:28:49;;;;;;;;;;;17.60;99.90;;;;;;5063424;28;20372;-67
2022/10/24 08:31:17;;;;;;;;;;;17.40;99.90;;;;;;5053775;28;20036;-67
2022/10/24 08:33:44;;;;;;;;;;;16.90;99.90;;;;;;5053225;28;19986;-68
2022/10/24 08:36:16;;;;;;;;;;;16.50;99.90;;;;;;5046895;28;19925;-68
2022/10/24 08:38:43;;;;;;;;;;;16.50;99.90;;;;;;5051343;28;19925;-67
2022/10/24 08:41:15;;;;;;;;;;;16.30;99.90;;;;;;5045183;28;19933;-69
2022/10/24 08:43:42;;;;;;;;;;;16.10;99.90;;;;;;5048544;28;19925;-66
2022/10/24 08:46:15;;;;;;;;;;;16.00;99.90;;;;;;5047770;28;19935;-66
2022/10/24 08:48:44;;;;;;;;;;;15.80;99.90;;;;;;5041174;28;19933;-69
2022/10/24 08:51:13;;;;;;;;;;;15.70;99.90;;;;;;5042068;28;19933;-68
2022/10/24 08:53:39;;;;;;;;;;;15.80;99.90;;;;;;5042625;28;19935;-68
2022/10/24 08:56:09;;;;;;;;;;;15.70;99.90;;;;;;5046373;28;19948;-66
2022/10/24 08:58:40;;;;;;;;;;;15.70;99.90;;;;;;5046215;28;20022;-68
2022/10/24 09:01:12;;;;;;;;;;;15.50;99.90;;;;;;5048790;28;20355;-67
2022/10/24 09:03:40;;;;;;;;;;;15.40;99.90;;;;;;5047170;28;19972;-67
2022/10/24 09:06:10;;;;;;;;;;;16.20;99.90;;;;;;5048060;28;20374;-67
2022/10/24 09:08:40;;;;;;;;;;;17.60;99.90;;;;;;5042309;28;19947;-67
2022/10/24 09:11:07;;;;;;;;;;;18.70;99.90;;;;;;5042304;28;19928;-68
2022/10/24 09:13:36;;;;;;;;;;;19.10;99.90;;;;;;5042451;28;20019;-68
2022/10/24 09:16:04;;;;;;;;;;;18.20;99.90;;;;;;5046744;28;19933;-68
2022/10/24 09:18:32;;;;;;;;;;;17.90;99.90;;;;;;5045071;28;20023;-68
2022/10/24 09:21:00;;;;;;;;;;;17.70;99.90;;;;;;5046536;28;19928;-67
2022/10/24 09:23:27;;;;;;;;;;;17.60;99.90;;;;;;5044068;28;19933;-68
2022/10/24 09:25:55;;;;;;;;;;;17.60;99.90;;;;;;5044065;28;19925;-66
2022/10/24 09:28:22;;;;;;;;;;;17.50;99.90;;;;;;5045920;28;20011;-65
2022/10/24 09:30:49;;;;;;;;;;;17.50;99.90;;;;;;5049404;28;19981;-66
2022/10/24 09:33:23;;;;;;;;;;;17.50;99.90;;;;;;5049608;28;19931;-65
2022/10/24 09:35:50;;;;;;;;;;;17.30;99.90;;;;;;5049385;28;20011;-65
2022/10/24 09:38:38;;;;;;;;;;;17.40;99.90;;;;;;5050009;28;19964;-65
2022/10/24 09:41:06;;;;;;;;;;;17.50;99.90;;;;;;5046029;28;20323;-65
2022/10/24 09:43:34;;;;;;;;;;;17.60;99.90;;;;;;5031951;28;20012;-65
2022/10/24 09:46:03;;;;;;;;;;;17.60;99.90;;;;;;5047889;28;19925;-65
2022/10/24 09:48:34;;;;;;;;;;;17.70;99.90;;;;;;5050778;28;19929;-65
2022/10/24 09:51:01;;;;;;;;;;;17.60;99.90;;;;;;5049001;28;19925;-66
2022/10/24 09:53:30;;;;;;;;;;;17.50;99.90;;;;;;5043582;28;19925;-65
2022/10/24 09:55:58;;;;;;;;;;;17.30;99.90;;;;;;5045331;28;21805;-65
2022/10/24 09:58:31;;;;;;;;;;;17.10;99.90;;;;;;5047785;28;20016;-65
2022/10/24 10:00:59;;;;;;;;;;;17.00;99.90;;;;;;5041638;28;20392;-65
2022/10/24 10:03:27;;;;;;;;;;;17.00;99.90;;;;;;5041069;28;19943;-66
2022/10/24 10:05:56;;;;;;;;;;;17.00;99.90;;;;;;5044961;28;20303;-67
2022/10/24 10:08:23;;;;;;;;;;;17.20;99.90;;;;;;5042402;28;20058;-68
2022/10/24 10:10:58;;;;;;;;;;;17.20;99.90;;;;;;5043221;28;20027;-68
2022/10/24 10:13:26;;;;;;;;;;;17.10;99.90;;;;;;5048230;28;19925;-68
2022/10/24 10:15:54;;;;;;;;;;;16.90;99.90;;;;;;5049817;28;19924;-68
2022/10/24 10:18:24;;;;;;;;;;;16.80;99.90;;;;;;5050612;28;19971;-67
2022/10/24 10:20:59;;;;;;;;;;;16.90;99.90;;;;;;5050696;28;20015;-67
2022/10/24 10:23:26;;;;;;;;;;;17.00;99.90;;;;;;5036812;28;20283;-68
2022/10/24 10:26:11;;;;;;;;;;;17.20;99.90;;;;;;5048750;28;20020;-67
2022/10/24 10:28:42;;;;;;;;;;;17.40;99.90;;;;;;5042679;28;19947;-67
2022/10/24 10:31:10;;;;;;;;;;;17.50;99.90;;;;;;5046937;28;19931;-67
2022/10/24 10:33:40;;;;;;;;;;;17.60;99.90;;;;;;5049502;28;20375;-66
2022/10/24 10:36:11;;;;;;;;;;;17.70;99.90;;;;;;5049024;28;20331;-67
2022/10/24 10:38:46;;;;;;;;;;;17.70;99.90;;;;;;5047140;28;19947;-67
2022/10/24 10:41:17;;;;;;;;;;;17.70;99.90;;;;;;5049448;28;19932;-67
2022/10/24 10:43:48;;;;;;;;;;;17.70;99.90;;;;;;5044146;28;19931;-67
2022/10/24 10:46:20;;;;;;;;;;;17.80;99.90;;;;;;5043053;28;20020;-67
2022/10/24 10:48:52;;;;;;;;;;;18.00;99.90;;;;;;5047336;28;19948;-67
2022/10/24 10:51:25;;;;;;;;;;;18.10;99.90;;;;;;5049650;28;19955;-67
2022/10/24 10:53:55;;;;;;;;;;;18.10;99.90;;;;;;5054247;28;20015;-67
2022/10/24 10:56:28;;;;;;;;;;;18.20;99.90;;;;;;5053893;28;19978;-67
2022/10/24 10:58:59;;;;;;;;;;;18.40;99.90;;;;;;5054125;28;19925;-68
2022/10/24 11:01:29;;;;;;;;;;;18.30;99.90;;;;;;5053615;28;19925;-66
2022/10/24 11:03:58;;;;;;;;;;;18.20;99.90;;;;;;5052633;28;20094;-65
2022/10/24 11:06:30;;;;;;;;;;;18.00;99.90;;;;;;5053396;28;20217;-67
2022/10/24 11:09:08;;;;;;;;;;;18.00;99.90;;;;;;5053405;28;20011;-68
2022/10/24 11:11:37;;;;;;;;;;;17.90;99.90;;;;;;5053493;28;20413;-66
2022/10/24 11:14:14;;;;;;;;;;;17.80;99.90;;;;;;5054430;28;19974;-67
2022/10/24 11:16:42;;;;;;;;;;;17.90;99.90;;;;;;5046056;28;19967;-67
2022/10/24 11:19:11;;;;;;;;;;;18.10;99.90;;;;;;5052147;28;20298;-67
2022/10/24 11:21:41;;;;;;;;;;;18.00;99.90;;;;;;5048456;28;19925;-68
2022/10/24 11:24:11;;;;;;;;;;;17.90;99.90;;;;;;5042253;28;19964;-68
2022/10/24 11:26:40;;;;;;;;;;;17.90;99.90;;;;;;5052727;28;20368;-67
2022/10/24 11:29:11;;;;;;;;;;;17.80;99.90;;;;;;5053583;28;19925;-67
2022/10/24 11:31:40;;;;;;;;;;;17.70;99.90;;;;;;5053714;28;19932;-67
2022/10/24 11:34:12;;;;;;;;;;;17.60;99.90;;;;;;5052952;28;19924;-67
2022/10/24 11:36:43;;;;;;;;;;;17.60;99.90;;;;;;5051832;28;19972;-67
2022/10/24 11:39:12;;;;;;;;;;;17.70;99.90;;;;;;5052561;28;20379;-67
2022/10/24 11:41:49;;;;;;;;;;;17.80;99.90;;;;;;5053217;28;19975;-67
2022/10/24 11:44:36;;;;;;;;;;;18.10;99.90;;;;;;5053135;28;19931;-67
2022/10/24 11:47:07;;;;;;;;;;;18.20;99.90;;;;;;5052316;28;20020;-67
2022/10/24 11:49:36;;;;;;;;;;;18.10;99.90;;;;;;5052134;28;20011;-67
2022/10/24 11:52:13;;;;;;;;;;;18.20;99.90;;;;;;5036882;28;20007;-67
2022/10/24 11:54:42;;;;;;;;;;;18.20;99.90;;;;;;5052566;28;19925;-67
2022/10/24 11:57:11;;;;;;;;;;;18.10;99.90;;;;;;5053345;28;19925;-68
2022/10/24 11:59:38;;;;;;;;;;;18.20;99.90;;;;;;5049047;28;20003;-68
2022/10/24 12:02:23;;;;;;;;;;;18.20;99.90;;;;;;5051878;28;20022;-67
2022/10/24 12:05:01;;;;;;;;;;;18.10;99.90;;;;;;5048684;28;19925;-68
2022/10/24 12:10:32;;;;;;;;;;;18.20;99.90;;;;;;5099445;27;19916;-66
2022/10/24 12:13:10;;;;;;;;;;;18.20;99.90;;;;;;5100353;28;20011;-69
2022/10/24 12:15:42;;;;;;;;;;;18.10;99.90;;;;;;5089408;28;19924;-66
2022/10/24 12:18:11;;;;;;;;;;;18.10;99.90;;;;;;5100203;28;19938;-66
2022/10/24 12:20:39;;;;;;;;;;;18.20;99.90;;;;;;5089972;28;19924;-66
2022/10/24 12:23:06;;;;;;;;;;;18.20;99.90;;;;;;5105725;28;20015;-67
2022/10/24 12:25:35;;;;;;;;;;;18.10;99.90;;;;;;5088997;28;19932;-66
2022/10/24 12:28:03;;;;;;;;;;;18.30;99.90;;;;;;5092926;28;19928;-66
2022/10/24 12:30:30;;;;;;;;;;;18.40;99.90;;;;;;5088389;28;19924;-66
2022/10/24 12:32:58;;;;;;;;;;;18.40;99.90;;;;;;5091645;28;20003;-67
2022/10/24 12:35:33;;;;;;;;;;;18.40;99.90;;;;;;5102474;28;19928;-66
2022/10/24 12:38:00;;;;;;;;;;;18.20;99.90;;;;;;5103590;28;20340;-67
2022/10/24 12:40:45;;;;;;;;;;;18.20;99.90;;;;;;5093886;28;19924;-67
2022/10/24 12:43:15;;;;;;;;;;;18.10;99.90;;;;;;5074361;28;20019;-66
2022/10/24 12:45:42;;;;;;;;;;;18.20;99.90;;;;;;5095620;28;20383;-66
2022/10/24 12:48:23;;;;;;;;;;;18.20;99.90;;;;;;5095213;28;19925;-66
2022/10/24 12:50:56;;;;;;;;;;;18.20;99.90;;;;;;5093469;28;19952;-66
2022/10/24 12:53:41;;;;;;;;;;;18.20;99.90;;;;;;5093129;28;20004;-67
2022/10/24 12:56:10;;;;;;;;;;;18.30;99.90;;;;;;5089026;28;20363;-66
2022/10/24 12:58:38;;;;;;;;;;;18.30;99.90;;;;;;5088583;28;19962;-66
2022/10/24 13:01:06;;;;;;;;;;;18.30;99.90;;;;;;5091534;28;19924;-67
2022/10/24 13:03:45;;;;;;;;;;;18.30;99.90;;;;;;5099068;28;19924;-67
2022/10/24 13:06:14;;;;;;;;;;;18.30;99.90;;;;;;5097580;28;19924;-68
2022/10/24 13:08:47;;;;;;;;;;;18.30;99.90;;;;;;5105870;28;19936;-67
2022/10/24 13:11:24;;;;;;;;;;;18.30;99.90;;;;;;5119189;28;20317;-67
2022/10/24 13:14:23;;;;;;;;;;;18.40;99.90;;;;;;5117512;28;19924;-68
2022/10/24 13:16:58;;;;;;;;;;;18.30;99.90;;;;;;5031012;28;19925;-68
2022/10/24 13:19:26;;;;;;;;;;;18.30;99.90;;;;;;5028686;28;19952;-67
2022/10/24 13:21:54;;;;;;;;;;;18.30;99.90;;;;;;5058400;28;21130;-68
2022/10/24 13:24:23;;;;;;;;;;;18.20;99.90;;;;;;5109663;28;19923;-67
2022/10/24 13:26:52;;;;;;;;;;;18.20;99.90;;;;;;5099404;28;19924;-66
2022/10/24 13:29:34;;;;;;;;;;;18.20;99.90;;;;;;5111649;28;20480;-67
2022/10/24 13:32:15;;;;;;;;;;;18.10;99.90;;;;;;5073678;28;20028;-67
2022/10/24 13:34:45;;;;;;;;;;;18.00;99.90;;;;;;5081620;28;20023;-68
2022/10/24 13:37:14;;;;;;;;;;;18.10;99.90;;;;;;5102925;28;19924;-67
2022/10/24 13:39:45;;;;;;;;;;;18.00;99.90;;;;;;5103514;28;20022;-67
2022/10/24 13:42:21;;;;;;;;;;;17.90;99.90;;;;;;5109221;28;20375;-69
2022/10/24 13:44:50;;;;;;;;;;;18.10;99.90;;;;;;5107776;28;19982;-69
2022/10/24 13:47:19;;;;;;;;;;;18.20;99.90;;;;;;5105817;28;19927;-67
2022/10/24 13:49:57;;;;;;;;;;;18.20;99.90;;;;;;5106737;28;20006;-68
2022/10/24 13:52:26;;;;;;;;;;;18.30;99.90;;;;;;5103725;28;20030;-69
2022/10/24 13:54:57;;;;;;;;;;;18.40;99.90;;;;;;5095640;28;19978;-68
2022/10/24 13:57:28;;;;;;;;;;;18.30;99.90;;;;;;5100810;28;19968;-69
2022/10/24 13:59:56;;;;;;;;;;;18.30;99.90;;;;;;5099486;28;20015;-69
2022/10/24 14:02:25;;;;;;;;;;;18.30;99.90;;;;;;5094545;28;20029;-69
2022/10/24 14:04:53;;;;;;;;;;;18.30;99.90;;;;;;5081459;28;19925;-69
2022/10/24 14:07:23;;;;;;;;;;;18.20;99.90;;;;;;5092852;28;20112;-70
2022/10/24 14:09:53;;;;;;;;;;;18.20;99.90;;;;;;5096909;28;19938;-69
2022/10/24 14:12:21;;;;;;;;;;;18.20;99.90;;;;;;5109958;28;19999;-69
2022/10/24 14:14:49;;;;;;;;;;;18.20;99.90;;;;;;5093738;28;19964;-67
2022/10/24 14:17:20;;;;;;;;;;;18.20;99.90;;;;;;5089054;28;19930;-69
2022/10/24 14:19:52;;;;;;;;;;;18.20;99.90;;;;;;5097840;28;19924;-68
2022/10/24 14:22:22;;;;;;;;;;;18.20;99.90;;;;;;5081486;28;20534;-68
2022/10/24 14:24:49;;;;;;;;;;;18.20;99.90;;;;;;5097772;28;20007;-69
2022/10/24 14:27:16;;;;;;;;;;;18.10;99.90;;;;;;5090680;28;19989;-68
2022/10/24 14:29:57;;;;;;;;;;;18.10;99.90;;;;;;5094842;28;20331;-68